Wilson Algeciras — 9HA2471 — position and weather

sailwx.info

Track history (hours):
 
Tides and Currents Weather Stations Pressure Air Temp Water Temp Dewpoint Dewpoint Depression Visibility Wind Speed Wind Dir Waves Ship Positions

Wilson Algeciras

Last reported at 2017-Jan-15 01:29 UTC. Time now 2017-Jan-19 21:34 UTC.
Position N 58°01' E 005°56'.

Length 88 m; draft 5.3 m.

Type: Ship. MMSI: 248689000.

Date/timePositionNaut miles runAvg speedWind from/ knotsBaromVisibWave heightAir tempDewpointWater temp
2017-Jan-15 01:29N 58°01' E 005°56'14 7.2
2017-Jan-14 23:33N 57°55' E 006°20'7 7.4
2017-Jan-14 22:32N 57°54' E 006°34'8 8.0
2017-Jan-14 21:32N 57°53' E 006°49'13 9.2
2017-Jan-14 20:10N 57°53' E 007°12'100 8.5
2017-Jan-14 08:18N 57°49' E 010°21'6 8.4
2017-Jan-14 07:34N 57°49' E 010°33'7 7.1
2017-Jan-14 06:33N 57°48' E 010°46'12 8.2
2017-Jan-14 05:04N 57°36' E 010°45'8 8.9
2017-Jan-14 04:13N 57°28' E 010°44'6 9.1
2017-Jan-14 03:33N 57°22' E 010°44'67 9.4
2017-Jan-13 20:23N 56°16' E 011°06'8 9.8
2017-Jan-13 19:32N 56°08' E 011°06'10 9.3
2017-Jan-13 18:30N 55°58' E 011°02'1010.1
2017-Jan-13 17:31N 55°51' E 010°51'37 9.4
2017-Jan-13 13:33N 55°14' E 011°06'9 9.1
2017-Jan-13 12:33N 55°05' E 011°03'9 9.0
2017-Jan-13 11:33N 54°57' E 010°57'7 6.7
2017-Jan-13 10:33N 54°50' E 010°60'5 4.5
2017-Jan-13 09:32N 54°50' E 011°08'0 0.0
2017-Jan-13 08:32N 54°50' E 011°08'0 0.0
2017-Jan-13 07:29N 54°50' E 011°08'0 0.0
2017-Jan-13 06:32N 54°50' E 011°08'0 0.0
2017-Jan-13 05:32N 54°50' E 011°08'0 0.0
2017-Jan-13 04:32N 54°50' E 011°08'0 0.0
2017-Jan-13 03:32N 54°50' E 011°08'0 0.0
2017-Jan-13 02:32N 54°50' E 011°08'0 0.0
2017-Jan-13 01:32N 54°50' E 011°08'0 0.0
2017-Jan-13 00:32N 54°50' E 011°08'0 0.0
2017-Jan-12 23:32N 54°50' E 011°08'0 0.0
2017-Jan-12 22:32N 54°50' E 011°08'0 0.0
2017-Jan-12 21:32N 54°50' E 011°08'0 0.0
2017-Jan-12 20:32N 54°50' E 011°08'0 0.0
2017-Jan-12 19:32N 54°50' E 011°08'0 0.0
2017-Jan-12 18:32N 54°50' E 011°08'0 0.0
2017-Jan-12 17:32N 54°50' E 011°08'0 0.0
2017-Jan-12 16:32N 54°50' E 011°08'0 0.0
2017-Jan-12 15:32N 54°50' E 011°08'0 0.0
2017-Jan-12 14:32N 54°50' E 011°08'0 0.0
2017-Jan-12 13:32N 54°50' E 011°08'0 0.0
2017-Jan-12 12:32N 54°50' E 011°08'0 0.0
2017-Jan-12 11:32N 54°50' E 011°08'0 0.0
2017-Jan-12 10:32N 54°50' E 011°08'0 0.0
2017-Jan-12 09:32N 54°50' E 011°08'0 0.0
2017-Jan-12 08:32N 54°50' E 011°08'0 0.0
2017-Jan-12 07:32N 54°50' E 011°08'0 0.0
2017-Jan-12 06:32N 54°50' E 011°08'0 0.0
2017-Jan-12 05:32N 54°50' E 011°08'0 0.0
2017-Jan-12 04:32N 54°50' E 011°08'0 0.0
2017-Jan-12 03:32N 54°50' E 011°08'0 0.0
2017-Jan-12 02:29N 54°50' E 011°08'0 0.0
2017-Jan-12 01:32N 54°50' E 011°08'0 0.0
2017-Jan-12 00:32N 54°50' E 011°08'0 0.0
2017-Jan-11 23:32N 54°50' E 011°08'0 0.0
2017-Jan-11 22:32N 54°50' E 011°08'0 0.0
2017-Jan-11 21:32N 54°50' E 011°08'0 0.0
2017-Jan-11 20:29N 54°50' E 011°08'0 0.0
2017-Jan-11 19:29N 54°50' E 011°08'0 0.0
2017-Jan-11 18:32N 54°50' E 011°08'0 0.0
2017-Jan-11 17:32N 54°50' E 011°08'0 0.0
2017-Jan-11 16:32N 54°50' E 011°08'0 0.0
2017-Jan-11 15:32N 54°50' E 011°08'0 0.0
2017-Jan-11 14:32N 54°50' E 011°08'0 0.0
2017-Jan-11 13:32N 54°50' E 011°08'0 0.0
2017-Jan-11 12:32N 54°50' E 011°08'0 0.0
2017-Jan-11 11:32N 54°50' E 011°08'0 0.0
2017-Jan-11 10:32N 54°50' E 011°08'0 0.0
2017-Jan-11 09:32N 54°50' E 011°08'0 0.0
2017-Jan-11 08:32N 54°50' E 011°08'0 0.0
2017-Jan-11 07:32N 54°50' E 011°08'0 0.0
2017-Jan-11 06:32N 54°50' E 011°08'0 0.0
2017-Jan-11 05:32N 54°50' E 011°08'0 0.0
2017-Jan-11 04:32N 54°50' E 011°08'0 0.0
2017-Jan-11 03:33N 54°50' E 011°08'0 0.0
2017-Jan-11 02:33N 54°50' E 011°08'0 0.0
2017-Jan-11 01:33N 54°50' E 011°08'0 0.0
2017-Jan-11 00:33N 54°50' E 011°08'0 0.0
2017-Jan-10 23:33N 54°50' E 011°08'0 0.0
2017-Jan-10 22:33N 54°50' E 011°08'0 0.0
2017-Jan-10 21:33N 54°50' E 011°08'0 0.0
2017-Jan-10 20:33N 54°50' E 011°08'0 0.0
2017-Jan-10 19:33N 54°50' E 011°08'0 0.0
2017-Jan-10 18:33N 54°50' E 011°08'0 0.0
2017-Jan-10 17:33N 54°50' E 011°08'0 0.0
2017-Jan-10 16:33N 54°50' E 011°08'0 0.0
2017-Jan-10 15:33N 54°50' E 011°08'0 0.0
2017-Jan-10 14:33N 54°50' E 011°08'0 0.0
2017-Jan-10 13:33N 54°50' E 011°08'0 0.0
2017-Jan-10 12:33N 54°50' E 011°08'0 0.0
2017-Jan-10 11:33N 54°50' E 011°08'0 0.0
2017-Jan-10 10:33N 54°50' E 011°08'0 0.0
2017-Jan-10 09:33N 54°50' E 011°08'0 0.0
2017-Jan-10 08:33N 54°50' E 011°08'3 3.4
2017-Jan-10 07:34N 54°49' E 011°02'7 7.2
2017-Jan-10 06:34N 54°55' E 010°54'7 6.5
2017-Jan-10 05:33N 54°60' E 011°01'7 6.6
2017-Jan-10 04:33N 55°06' E 011°02'6 6.0
2017-Jan-10 03:33N 55°12' E 011°05'87 2.3
2017-Jan-08 14:19N 56°39' E 011°01'7 8.4
2017-Jan-08 13:26N 56°46' E 010°56'8 8.5
2017-Jan-08 12:29N 56°52' E 010°48'8 8.6
2017-Jan-08 11:33N 57°00' E 010°50'9 9.1
2017-Jan-08 10:33N 57°09' E 010°45'9 9.0
2017-Jan-08 09:33N 57°18' E 010°42'9 9.1
2017-Jan-08 08:33N 57°27' E 010°42'9 9.1
2017-Jan-08 07:33N 57°36' E 010°44'9 9.0
2017-Jan-08 06:33N 57°45' E 010°45'8 8.5
2017-Jan-08 05:33N 57°47' E 010°30'12 9.8
2017-Jan-08 04:21N 57°48' E 010°08'84 9.4
2017-Jan-07 19:23N 57°53' E 007°30'8 9.4
2017-Jan-07 18:33N 57°54' E 007°16'1010.0
2017-Jan-07 17:33N 57°56' E 006°57'10 9.6
2017-Jan-07 16:32N 58°00' E 006°41'9 9.0
2017-Jan-07 15:33N 58°05' E 006°26'9 9.4
2017-Jan-07 14:33N 58°12' E 006°16'7 0.3
2017-Jan-06 15:33N 58°19' E 006°15'6 5.7
2017-Jan-06 14:33N 58°14' E 006°12'1010.3
2017-Jan-06 13:32N 58°03' E 006°09'1110.9
2017-Jan-06 12:32N 57°53' E 006°04'269 9.6
2017-Jan-05 08:28N 53°27' E 004°44'8 9.1
2017-Jan-05 07:33N 53°20' E 004°38'9 8.5
2017-Jan-05 06:32N 53°12' E 004°32'32 6.4
2017-Jan-05 01:33N 52°43' E 004°12'  
Track history (hours):
 
Tides and Currents Weather Stations Pressure Air Temp Water Temp Dewpoint Dewpoint Depression Visibility Wind Speed Wind Dir Waves Ship Positions

Wilson Algeciras

Last reported at 2017-Jan-15 01:29 UTC. Time now 2017-Jan-19 21:34 UTC.
Position N 58°01' E 005°56'.

Length 88 m; draft 5.3 m.

Type: Ship. MMSI: 248689000.

Date/timePositionNaut miles runAvg speedWind from/ knotsBaromVisibWave heightAir tempDewpointWater temp
2017-Jan-15 01:29N 58°01' E 005°56'14 7.2
2017-Jan-14 23:33N 57°55' E 006°20'7 7.4
2017-Jan-14 22:32N 57°54' E 006°34'8 8.0
2017-Jan-14 21:32N 57°53' E 006°49'13 9.2
2017-Jan-14 20:10N 57°53' E 007°12'100 8.5
2017-Jan-14 08:18N 57°49' E 010°21'6 8.4
2017-Jan-14 07:34N 57°49' E 010°33'7 7.1
2017-Jan-14 06:33N 57°48' E 010°46'12 8.2
2017-Jan-14 05:04N 57°36' E 010°45'8 8.9
2017-Jan-14 04:13N 57°28' E 010°44'6 9.1
2017-Jan-14 03:33N 57°22' E 010°44'67 9.4
2017-Jan-13 20:23N 56°16' E 011°06'8 9.8
2017-Jan-13 19:32N 56°08' E 011°06'10 9.3
2017-Jan-13 18:30N 55°58' E 011°02'1010.1
2017-Jan-13 17:31N 55°51' E 010°51'37 9.4
2017-Jan-13 13:33N 55°14' E 011°06'9 9.1
2017-Jan-13 12:33N 55°05' E 011°03'9 9.0
2017-Jan-13 11:33N 54°57' E 010°57'7 6.7
2017-Jan-13 10:33N 54°50' E 010°60'5 4.5
2017-Jan-13 09:32N 54°50' E 011°08'0 0.0
2017-Jan-13 08:32N 54°50' E 011°08'0 0.0
2017-Jan-13 07:29N 54°50' E 011°08'0 0.0
2017-Jan-13 06:32N 54°50' E 011°08'0 0.0
2017-Jan-13 05:32N 54°50' E 011°08'0 0.0
2017-Jan-13 04:32N 54°50' E 011°08'0 0.0
2017-Jan-13 03:32N 54°50' E 011°08'0 0.0
2017-Jan-13 02:32N 54°50' E 011°08'0 0.0
2017-Jan-13 01:32N 54°50' E 011°08'0 0.0
2017-Jan-13 00:32N 54°50' E 011°08'0 0.0
2017-Jan-12 23:32N 54°50' E 011°08'0 0.0
2017-Jan-12 22:32N 54°50' E 011°08'0 0.0
2017-Jan-12 21:32N 54°50' E 011°08'0 0.0
2017-Jan-12 20:32N 54°50' E 011°08'0 0.0
2017-Jan-12 19:32N 54°50' E 011°08'0 0.0
2017-Jan-12 18:32N 54°50' E 011°08'0 0.0
2017-Jan-12 17:32N 54°50' E 011°08'0 0.0
2017-Jan-12 16:32N 54°50' E 011°08'0 0.0
2017-Jan-12 15:32N 54°50' E 011°08'0 0.0
2017-Jan-12 14:32N 54°50' E 011°08'0 0.0
2017-Jan-12 13:32N 54°50' E 011°08'0 0.0
2017-Jan-12 12:32N 54°50' E 011°08'0 0.0
2017-Jan-12 11:32N 54°50' E 011°08'0 0.0
2017-Jan-12 10:32N 54°50' E 011°08'0 0.0
2017-Jan-12 09:32N 54°50' E 011°08'0 0.0
2017-Jan-12 08:32N 54°50' E 011°08'0 0.0
2017-Jan-12 07:32N 54°50' E 011°08'0 0.0
2017-Jan-12 06:32N 54°50' E 011°08'0 0.0
2017-Jan-12 05:32N 54°50' E 011°08'0 0.0
2017-Jan-12 04:32N 54°50' E 011°08'0 0.0
2017-Jan-12 03:32N 54°50' E 011°08'0 0.0
2017-Jan-12 02:29N 54°50' E 011°08'0 0.0
2017-Jan-12 01:32N 54°50' E 011°08'0 0.0
2017-Jan-12 00:32N 54°50' E 011°08'0 0.0
2017-Jan-11 23:32N 54°50' E 011°08'0 0.0
2017-Jan-11 22:32N 54°50' E 011°08'0 0.0
2017-Jan-11 21:32N 54°50' E 011°08'0 0.0
2017-Jan-11 20:29N 54°50' E 011°08'0 0.0
2017-Jan-11 19:29N 54°50' E 011°08'0 0.0
2017-Jan-11 18:32N 54°50' E 011°08'0 0.0
2017-Jan-11 17:32N 54°50' E 011°08'0 0.0
2017-Jan-11 16:32N 54°50' E 011°08'0 0.0
2017-Jan-11 15:32N 54°50' E 011°08'0 0.0
2017-Jan-11 14:32N 54°50' E 011°08'0 0.0
2017-Jan-11 13:32N 54°50' E 011°08'0 0.0
2017-Jan-11 12:32N 54°50' E 011°08'0 0.0
2017-Jan-11 11:32N 54°50' E 011°08'0 0.0
2017-Jan-11 10:32N 54°50' E 011°08'0 0.0
2017-Jan-11 09:32N 54°50' E 011°08'0 0.0
2017-Jan-11 08:32N 54°50' E 011°08'0 0.0
2017-Jan-11 07:32N 54°50' E 011°08'0 0.0
2017-Jan-11 06:32N 54°50' E 011°08'0 0.0
2017-Jan-11 05:32N 54°50' E 011°08'0 0.0
2017-Jan-11 04:32N 54°50' E 011°08'0 0.0
2017-Jan-11 03:33N 54°50' E 011°08'0 0.0
2017-Jan-11 02:33N 54°50' E 011°08'0 0.0
2017-Jan-11 01:33N 54°50' E 011°08'0 0.0
2017-Jan-11 00:33N 54°50' E 011°08'0 0.0
2017-Jan-10 23:33N 54°50' E 011°08'0 0.0
2017-Jan-10 22:33N 54°50' E 011°08'0 0.0
2017-Jan-10 21:33N 54°50' E 011°08'0 0.0
2017-Jan-10 20:33N 54°50' E 011°08'0 0.0
2017-Jan-10 19:33N 54°50' E 011°08'0 0.0
2017-Jan-10 18:33N 54°50' E 011°08'0 0.0
2017-Jan-10 17:33N 54°50' E 011°08'0 0.0
2017-Jan-10 16:33N 54°50' E 011°08'0 0.0
2017-Jan-10 15:33N 54°50' E 011°08'0 0.0
2017-Jan-10 14:33N 54°50' E 011°08'0 0.0
2017-Jan-10 13:33N 54°50' E 011°08'0 0.0
2017-Jan-10 12:33N 54°50' E 011°08'0 0.0
2017-Jan-10 11:33N 54°50' E 011°08'0 0.0
2017-Jan-10 10:33N 54°50' E 011°08'0 0.0
2017-Jan-10 09:33N 54°50' E 011°08'0 0.0
2017-Jan-10 08:33N 54°50' E 011°08'3 3.4
2017-Jan-10 07:34N 54°49' E 011°02'7 7.2
2017-Jan-10 06:34N 54°55' E 010°54'7 6.5
2017-Jan-10 05:33N 54°60' E 011°01'7 6.6
2017-Jan-10 04:33N 55°06' E 011°02'6 6.0
2017-Jan-10 03:33N 55°12' E 011°05'87 2.3
2017-Jan-08 14:19N 56°39' E 011°01'7 8.4
2017-Jan-08 13:26N 56°46' E 010°56'8 8.5
2017-Jan-08 12:29N 56°52' E 010°48'8 8.6
2017-Jan-08 11:33N 57°00' E 010°50'9 9.1
2017-Jan-08 10:33N 57°09' E 010°45'9 9.0
2017-Jan-08 09:33N 57°18' E 010°42'9 9.1
2017-Jan-08 08:33N 57°27' E 010°42'9 9.1
2017-Jan-08 07:33N 57°36' E 010°44'9 9.0
2017-Jan-08 06:33N 57°45' E 010°45'8 8.5
2017-Jan-08 05:33N 57°47' E 010°30'12 9.8
2017-Jan-08 04:21N 57°48' E 010°08'84 9.4
2017-Jan-07 19:23N 57°53' E 007°30'8 9.4
2017-Jan-07 18:33N 57°54' E 007°16'1010.0
2017-Jan-07 17:33N 57°56' E 006°57'10 9.6
2017-Jan-07 16:32N 58°00' E 006°41'9 9.0
2017-Jan-07 15:33N 58°05' E 006°26'9 9.4
2017-Jan-07 14:33N 58°12' E 006°16'7 0.3
2017-Jan-06 15:33N 58°19' E 006°15'6 5.7
2017-Jan-06 14:33N 58°14' E 006°12'1010.3
2017-Jan-06 13:32N 58°03' E 006°09'1110.9
2017-Jan-06 12:32N 57°53' E 006°04'269 9.6
2017-Jan-05 08:28N 53°27' E 004°44'8 9.1
2017-Jan-05 07:33N 53°20' E 004°38'9 8.5
2017-Jan-05 06:32N 53°12' E 004°32'32 6.4
2017-Jan-05 01:33N 52°43' E 004°12'  

Dump ship's entire track history